Time;durP1;ratioP1;P1;durP2;ratioP2;P2;SDS_P1;SDS_P2;PMS_P1;PMS_P2;Temp;Humidity;BMP_temperature;BMP_pressure;BME280_temperature;BME280_humidity;BME280_pressure;Samples;Min_cycle;Max_cycle;Signal;HPM_P1;HPM_P2
2022/06/04 00:00:41;;;;;;;15.47;13.67;;;15.40;99.90;;;;;;5116351;28;20234;-78
2022/06/04 00:03:09;;;;;;;15.47;13.87;;;15.30;99.90;;;;;;5094216;28;20568;-79
2022/06/04 00:05:37;;;;;;;13.30;12.00;;;15.30;99.90;;;;;;5093609;28;20197;-78
2022/06/04 00:08:06;;;;;;;14.77;13.43;;;15.20;99.90;;;;;;5093912;28;20257;-78
2022/06/04 00:16:07;;;;;;;13.47;12.27;;;15.10;99.90;;;;;;5093746;28;20980;-78
2022/06/04 00:18:34;;;;;;;12.73;11.50;;;15.00;99.90;;;;;;5093643;28;20200;-79
2022/06/04 00:21:01;;;;;;;14.10;12.50;;;14.80;99.90;;;;;;5093732;28;20346;-78
2022/06/04 00:23:28;;;;;;;14.50;12.47;;;14.80;99.90;;;;;;5093491;28;20202;-78
2022/06/04 00:25:58;;;;;;;14.00;12.57;;;14.70;99.90;;;;;;5093556;28;20223;-78
2022/06/04 00:28:27;;;;;;;15.77;12.67;;;14.70;99.90;;;;;;5093365;28;20196;-78
2022/06/04 00:30:56;;;;;;;15.93;14.33;;;14.70;99.90;;;;;;5093345;28;20254;-78
2022/06/04 00:33:23;;;;;;;15.77;14.17;;;14.70;99.90;;;;;;5093729;28;20212;-78
2022/06/04 00:35:54;;;;;;;16.90;15.07;;;14.70;99.90;;;;;;5095223;28;20254;-78
2022/06/04 00:38:23;;;;;;;15.70;14.10;;;14.60;99.90;;;;;;5103821;28;20196;-77
2022/06/04 00:40:52;;;;;;;16.20;14.57;;;14.60;99.90;;;;;;5109697;28;20220;-77
2022/06/04 00:43:20;;;;;;;15.73;14.30;;;14.60;99.90;;;;;;5116613;28;20204;-78
2022/06/04 00:46:31;;;;;;;17.23;15.07;;;14.60;99.90;;;;;;5114506;28;20196;-78
2022/06/04 00:48:59;;;;;;;15.37;13.87;;;14.70;99.90;;;;;;5117502;28;20281;-77
2022/06/04 00:51:27;;;;;;;14.90;13.57;;;14.80;99.90;;;;;;5114147;28;20188;-77
2022/06/04 00:53:57;;;;;;;15.80;13.50;;;14.80;99.90;;;;;;5113787;28;20222;-78
2022/06/04 00:56:34;;;;;;;15.00;13.67;;;14.70;99.90;;;;;;5106824;28;20644;-77
2022/06/04 00:59:12;;;;;;;15.77;14.23;;;14.70;99.90;;;;;;5093702;28;20234;-77
2022/06/04 01:01:48;;;;;;;16.43;14.83;;;14.70;99.90;;;;;;5093060;28;20625;-78
2022/06/04 01:07:21;;;;;;;16.47;14.77;;;14.60;99.90;;;;;;5093036;28;20191;-78
2022/06/04 01:10:08;;;;;;;16.97;15.13;;;14.60;99.90;;;;;;5092894;28;20246;-78
2022/06/04 01:12:47;;;;;;;17.87;16.07;;;14.50;99.90;;;;;;5092906;28;20199;-77
2022/06/04 01:15:24;;;;;;;17.93;16.13;;;14.30;99.90;;;;;;5075162;28;20245;-78
2022/06/04 01:18:08;;;;;;;18.63;16.70;;;14.20;99.90;;;;;;5092920;28;20196;-78
2022/06/04 01:20:41;;;;;;;18.07;16.17;;;14.10;99.90;;;;;;5092959;28;20246;-77
2022/06/04 01:23:40;;;;;;;17.73;16.00;;;14.10;99.90;;;;;;5094658;28;20197;-77
2022/06/04 01:26:24;;;;;;;17.63;15.70;;;14.30;99.90;;;;;;5111911;28;20224;-77
2022/06/04 01:28:56;;;;;;;28.60;18.10;;;14.30;99.90;;;;;;5098322;28;20200;-77
2022/06/04 01:31:28;;;;;;;31.10;18.30;;;14.30;99.90;;;;;;5093249;28;20196;-78
2022/06/04 01:34:02;;;;;;;20.87;18.27;;;14.20;99.90;;;;;;5093128;28;20200;-78
2022/06/04 01:36:40;;;;;;;21.07;17.60;;;14.10;99.90;;;;;;5092971;28;20656;-77
2022/06/04 01:39:10;;;;;;;18.90;16.87;;;14.20;99.90;;;;;;5092766;28;20552;-78
2022/06/04 01:41:42;;;;;;;25.57;18.43;;;14.20;99.90;;;;;;5092602;28;20220;-78
2022/06/04 01:44:13;;;;;;;28.87;19.50;;;14.20;99.90;;;;;;5092698;28;20643;-78
2022/06/04 01:46:45;;;;;;;25.37;19.27;;;14.20;99.90;;;;;;5092973;28;20197;-77
2022/06/04 01:49:17;;;;;;;21.90;17.73;;;14.30;99.90;;;;;;5092935;28;20200;-78
2022/06/04 01:51:45;;;;;;;20.43;18.30;;;14.40;99.90;;;;;;5092784;28;20580;-77
2022/06/04 01:54:16;;;;;;;20.67;18.43;;;14.40;99.90;;;;;;5092817;28;20414;-78
2022/06/04 01:56:48;;;;;;;19.97;17.27;;;14.40;99.90;;;;;;5095939;28;20605;-77
2022/06/04 01:59:20;;;;;;;19.83;17.27;;;14.50;99.90;;;;;;5096563;28;20196;-78
2022/06/04 02:01:50;;;;;;;18.70;16.67;;;14.50;99.90;;;;;;5096238;28;20265;-78
2022/06/04 02:04:20;;;;;;;19.23;17.17;;;14.60;99.90;;;;;;5096245;28;20196;-78
2022/06/04 02:09:36;;;;;;;19.57;17.47;;;14.60;99.90;;;;;;5095106;28;20199;-77
2022/06/04 02:12:07;;;;;;;21.37;19.17;;;14.70;99.90;;;;;;5096225;28;20200;-77
2022/06/04 02:14:34;;;;;;;22.00;19.40;;;14.80;99.90;;;;;;5096037;28;20196;-78
2022/06/04 02:17:06;;;;;;;23.73;20.17;;;14.80;99.90;;;;;;5095939;28;20254;-77
2022/06/04 02:19:32;;;;;;;28.73;21.10;;;14.80;99.90;;;;;;5096193;28;20208;-78
2022/06/04 02:21:59;;;;;;;32.97;21.87;;;14.80;99.90;;;;;;5096044;28;20289;-77
2022/06/04 02:24:26;;;;;;;34.40;24.67;;;14.80;99.90;;;;;;5098964;28;20200;-77
2022/06/04 02:26:53;;;;;;;56.17;24.83;;;14.80;99.90;;;;;;5118365;28;20204;-77
2022/06/04 02:29:22;;;;;;;44.87;26.27;;;14.90;99.90;;;;;;5100188;28;20200;-77
2022/06/04 02:31:54;;;;;;;63.87;27.47;;;14.90;99.90;;;;;;5096407;28;20283;-77
2022/06/04 02:34:26;;;;;;;44.13;26.20;;;14.90;99.90;;;;;;5096051;28;20196;-78
2022/06/04 02:37:02;;;;;;;38.50;25.23;;;14.90;99.90;;;;;;5095930;28;20610;-77
2022/06/04 02:39:35;;;;;;;45.37;25.43;;;14.90;99.90;;;;;;5095885;28;20644;-77
2022/06/04 02:42:07;;;;;;;43.40;24.70;;;14.90;99.90;;;;;;5095547;28;20231;-77
2022/06/04 02:44:42;;;;;;;31.53;24.47;;;14.90;99.90;;;;;;5095952;28;20196;-77
2022/06/04 02:47:14;;;;;;;33.33;21.73;;;14.90;99.90;;;;;;5095852;28;20237;-77
2022/06/04 02:49:46;;;;;;;26.97;20.07;;;14.70;99.90;;;;;;5095668;28;20206;-78
2022/06/04 02:52:15;;;;;;;49.53;23.07;;;14.70;99.90;;;;;;5097344;28;20204;-76
2022/06/04 02:54:48;;;;;;;29.37;22.23;;;14.70;99.90;;;;;;5098266;28;20228;-77
2022/06/04 02:57:16;;;;;;;41.07;22.30;;;14.80;99.90;;;;;;5096373;28;20548;-77
2022/06/04 02:59:47;;;;;;;38.33;23.20;;;14.80;99.90;;;;;;5096548;28;20204;-77
2022/06/04 03:02:18;;;;;;;31.53;22.70;;;14.80;99.90;;;;;;5095293;28;20254;-77
2022/06/04 03:04:49;;;;;;;35.23;22.00;;;14.80;99.90;;;;;;5095105;28;20196;-75
2022/06/04 03:07:18;;;;;;;37.20;21.73;;;14.80;99.90;;;;;;5095454;28;20314;-76
2022/06/04 03:09:45;;;;;;;94.17;23.17;;;14.80;99.90;;;;;;5077102;28;20658;-76
2022/06/04 03:12:13;;;;;;;60.90;23.73;;;14.70;99.90;;;;;;5095197;28;20200;-76
2022/06/04 03:14:39;;;;;;;197.77;26.73;;;14.70;99.90;;;;;;5094724;28;20716;-76
2022/06/04 03:17:10;;;;;;;194.73;29.30;;;14.80;99.90;;;;;;5094510;28;20192;-76
2022/06/04 03:19:37;;;;;;;117.37;25.77;;;14.80;99.90;;;;;;5094670;28;20204;-76
2022/06/04 03:22:04;;;;;;;90.33;25.97;;;14.70;99.90;;;;;;5094681;28;20220;-76
2022/06/04 03:24:31;;;;;;;60.23;26.17;;;14.80;99.90;;;;;;5094781;28;20208;-76
2022/06/04 03:26:58;;;;;;;39.80;25.60;;;14.80;99.90;;;;;;5094622;28;20207;-76
2022/06/04 03:29:24;;;;;;;43.60;25.13;;;14.80;99.90;;;;;;5094549;28;20270;-76
2022/06/04 03:31:51;;;;;;;40.97;26.10;;;14.90;99.90;;;;;;5094305;28;20196;-76
2022/06/04 03:34:22;;;;;;;119.47;30.03;;;14.90;99.90;;;;;;5094457;28;20584;-77
2022/06/04 03:36:48;;;;;;;52.17;29.23;;;15.00;99.90;;;;;;5094598;28;20189;-76
2022/06/04 03:39:15;;;;;;;540.30;42.33;;;15.00;99.90;;;;;;5094263;28;20192;-77
2022/06/04 03:41:42;;;;;;;290.23;34.13;;;15.00;99.90;;;;;;5094113;28;20322;-76
2022/06/04 03:44:09;;;;;;;199.37;32.87;;;14.90;99.90;;;;;;5094183;28;20568;-76
2022/06/04 03:46:37;;;;;;;120.23;30.83;;;14.90;99.90;;;;;;5094155;28;20200;-76
2022/06/04 03:49:04;;;;;;;120.77;29.83;;;14.90;99.90;;;;;;5093970;28;20327;-76
2022/06/04 03:51:33;;;;;;;195.90;32.87;;;15.00;99.90;;;;;;5094686;28;20197;-77
2022/06/04 03:53:59;;;;;;;195.65;31.77;;;15.00;99.90;;;;;;5095586;28;20200;-76
2022/06/04 03:56:26;;;;;;;235.60;33.90;;;14.90;99.90;;;;;;5098090;28;20200;-76
2022/06/04 03:58:53;;;;;;;65.33;30.50;;;14.80;99.90;;;;;;5117250;28;20230;-76
2022/06/04 04:01:22;;;;;;;126.57;32.73;;;15.00;99.90;;;;;;5118163;28;20197;-76
2022/06/04 04:03:49;;;;;;;58.43;27.80;;;15.10;99.90;;;;;;5114738;28;20188;-75
2022/06/04 04:06:18;;;;;;;58.53;30.90;;;15.10;99.90;;;;;;5116520;28;20201;-76
2022/06/04 04:08:46;;;;;;;94.03;30.98;;;15.20;99.90;;;;;;5112095;28;20197;-76
2022/06/04 04:11:14;;;;;;;175.87;33.57;;;15.20;99.90;;;;;;5113669;28;20204;-75
2022/06/04 04:13:41;;;;;;;82.27;28.20;;;15.30;99.90;;;;;;5103703;28;20712;-77
2022/06/04 04:16:09;;;;;;;81.70;29.10;;;15.20;99.90;;;;;;5094999;28;20614;-77
2022/06/04 04:18:37;;;;;;;112.78;29.50;;;15.30;99.90;;;;;;5094235;28;20249;-77
2022/06/04 04:21:06;;;;;;;46.42;25.38;;;15.40;99.90;;;;;;5093671;28;20253;-77
2022/06/04 04:23:33;;;;;;;51.57;25.43;;;15.30;99.90;;;;;;5093363;28;20255;-77
2022/06/04 04:26:01;;;;;;;143.43;27.13;;;15.40;99.90;;;;;;5093345;28;20242;-77
2022/06/04 04:28:28;;;;;;;38.07;24.17;;;15.40;99.90;;;;;;5093271;28;20196;-77
2022/06/04 04:30:54;;;;;;;61.92;24.60;;;15.60;99.90;;;;;;5093358;28;20200;-77
2022/06/04 04:33:21;;;;;;;93.70;24.73;;;15.70;99.90;;;;;;5093391;28;20196;-76
2022/06/04 04:35:48;;;;;;;27.23;22.57;;;15.60;99.90;;;;;;5093338;28;20192;-76
2022/06/04 04:38:18;;;;;;;34.20;22.48;;;15.70;99.90;;;;;;5093126;28;20200;-76
2022/06/04 04:40:46;;;;;;;34.13;22.08;;;15.80;99.90;;;;;;5093114;28;20688;-77
2022/06/04 04:43:14;;;;;;;26.95;22.17;;;15.80;99.90;;;;;;5093196;28;20228;-76
2022/06/04 04:45:43;;;;;;;23.85;20.25;;;15.90;99.90;;;;;;5093059;28;20582;-77
2022/06/04 04:48:09;;;;;;;23.50;20.30;;;16.00;99.90;;;;;;5092989;28;20225;-76
2022/06/04 04:50:39;;;;;;;26.25;21.38;;;16.10;99.90;;;;;;5093107;28;20290;-76
2022/06/04 04:53:10;;;;;;;34.20;20.98;;;16.10;99.90;;;;;;5093293;28;20246;-76
2022/06/04 04:55:37;;;;;;;36.63;21.23;;;16.20;99.90;;;;;;5092941;28;20525;-76
2022/06/04 04:58:05;;;;;;;140.40;23.95;;;16.00;99.90;;;;;;5093598;28;20204;-75
2022/06/04 05:00:34;;;;;;;65.97;20.50;;;16.00;99.90;;;;;;5104336;28;20257;-84
2022/06/04 05:03:02;;;;;;;62.75;21.08;;;15.90;99.90;;;;;;5115676;28;20224;-83
2022/06/04 05:05:29;;;;;;;42.83;20.85;;;15.80;99.90;;;;;;5109541;28;20671;-81
2022/06/04 05:07:55;;;;;;;26.77;18.88;;;15.80;99.90;;;;;;5089930;28;20204;-78
2022/06/04 05:10:22;;;;;;;25.48;18.80;;;15.90;99.90;;;;;;5093780;28;20233;-76
2022/06/04 05:12:51;;;;;;;26.42;20.98;;;16.00;99.90;;;;;;5093306;28;20204;-71
2022/06/04 05:15:18;;;;;;;39.38;21.42;;;16.10;99.90;;;;;;5092992;28;20249;-73
2022/06/04 05:17:46;;;;;;;28.55;20.55;;;16.10;99.90;;;;;;5092840;28;20200;-73
2022/06/04 05:20:13;;;;;;;23.63;18.98;;;16.10;99.90;;;;;;5092700;28;20200;-72
2022/06/04 05:22:39;;;;;;;21.35;18.60;;;16.10;99.90;;;;;;5092875;28;20228;-74
2022/06/04 05:25:07;;;;;;;22.27;19.88;;;16.20;99.90;;;;;;5092792;28;20192;-78
2022/06/04 05:27:34;;;;;;;20.98;18.77;;;16.30;99.90;;;;;;5092664;28;20196;-75
2022/06/04 05:30:01;;;;;;;21.52;19.23;;;16.40;99.90;;;;;;5093358;28;20196;-74
2022/06/04 05:32:27;;;;;;;20.77;18.58;;;16.50;99.90;;;;;;5096705;28;20234;-73
2022/06/04 05:34:55;;;;;;;21.20;19.05;;;16.50;99.90;;;;;;5095961;28;20566;-72
2022/06/04 05:37:22;;;;;;;20.27;18.27;;;16.50;99.90;;;;;;5095844;28;20578;-72
2022/06/04 05:39:49;;;;;;;22.73;19.63;;;16.60;99.90;;;;;;5096504;28;20200;-72
2022/06/04 05:42:16;;;;;;;19.80;17.95;;;16.80;99.90;;;;;;5096278;28;20216;-73
2022/06/04 05:44:42;;;;;;;19.98;17.80;;;16.90;99.90;;;;;;5096995;28;20365;-72
2022/06/04 05:47:09;;;;;;;18.60;16.77;;;16.90;99.90;;;;;;5096332;28;20718;-73
2022/06/04 05:49:37;;;;;;;17.52;15.88;;;17.00;99.90;;;;;;5097368;28;20543;-72
2022/06/04 05:52:05;;;;;;;17.90;16.20;;;17.10;99.90;;;;;;5096469;28;20200;-73
2022/06/04 05:54:33;;;;;;;16.98;15.38;;;17.20;99.90;;;;;;5096167;28;20249;-73
2022/06/04 05:56:59;;;;;;;16.70;15.10;;;17.30;99.90;;;;;;5096059;28;20708;-73
2022/06/04 05:59:26;;;;;;;16.95;15.35;;;17.40;99.90;;;;;;5095904;28;20200;-72
2022/06/04 06:01:53;;;;;;;15.15;13.65;;;17.50;99.90;;;;;;5095768;28;20200;-72
2022/06/04 06:04:22;;;;;;;16.58;14.88;;;17.60;99.90;;;;;;5095631;28;20779;-72
2022/06/04 06:06:51;;;;;;;15.20;13.80;;;17.80;99.90;;;;;;5096114;28;20230;-72
2022/06/04 06:09:22;;;;;;;14.63;13.32;;;17.80;99.90;;;;;;5096085;28;20200;-72
2022/06/04 06:11:50;;;;;;;13.70;12.40;;;17.90;99.90;;;;;;5096118;28;20302;-72
2022/06/04 06:14:17;;;;;;;13.00;11.48;;;18.00;99.90;;;;;;5095813;28;20197;-72
2022/06/04 06:16:46;;;;;;;13.63;12.30;;;18.20;99.90;;;;;;5095913;28;20325;-72
2022/06/04 06:19:13;;;;;;;12.30;11.18;;;18.40;99.90;;;;;;5095875;28;20198;-73
2022/06/04 06:21:41;;;;;;;11.98;10.88;;;18.60;99.90;;;;;;5079297;28;20248;-72
2022/06/04 06:24:09;;;;;;;12.30;11.20;;;18.70;99.90;;;;;;5096170;28;20235;-73
2022/06/04 06:26:44;;;;;;;11.27;10.27;;;19.00;99.90;;;;;;5095487;28;20634;-73
2022/06/04 06:29:12;;;;;;;11.18;10.18;;;19.20;99.90;;;;;;5096059;28;20265;-72
2022/06/04 06:31:38;;;;;;;12.38;10.98;;;19.50;99.90;;;;;;5096870;28;20204;-72
2022/06/04 06:34:05;;;;;;;11.15;10.15;;;19.40;99.90;;;;;;5095453;28;20200;-73
2022/06/04 06:36:32;;;;;;;11.50;10.43;;;19.50;99.90;;;;;;5095220;28;20700;-73
2022/06/04 06:38:58;;;;;;;11.95;10.82;;;19.70;99.90;;;;;;5095014;28;20717;-73
2022/06/04 06:41:26;;;;;;;12.50;11.20;;;20.00;99.90;;;;;;5094801;28;20428;-73
2022/06/04 06:43:54;;;;;;;11.38;10.38;;;20.30;99.90;;;;;;5095065;28;20232;-73
2022/06/04 06:46:24;;;;;;;11.35;10.30;;;20.60;99.90;;;;;;5095243;28;20196;-73
2022/06/04 06:48:54;;;;;;;11.43;10.43;;;20.80;99.90;;;;;;5094912;28;20228;-73
2022/06/04 06:51:23;;;;;;;11.05;9.93;;;20.90;99.90;;;;;;5095170;28;20192;-73
2022/06/04 06:53:50;;;;;;;11.70;10.57;;;21.10;99.90;;;;;;5095140;28;20192;-73
2022/06/04 06:56:21;;;;;;;11.10;10.10;;;21.00;99.90;;;;;;5095171;28;20200;-73
2022/06/04 06:58:48;;;;;;;11.18;10.18;;;20.90;99.90;;;;;;5095107;28;20200;-73
2022/06/04 07:01:16;;;;;;;10.40;9.40;;;21.20;99.90;;;;;;5095055;28;20290;-73
2022/06/04 07:03:44;;;;;;;9.98;9.07;;;21.40;99.90;;;;;;5094856;28;20277;-73
2022/06/04 07:06:13;;;;;;;11.10;10.05;;;21.70;99.90;;;;;;5094856;28;20200;-73
2022/06/04 07:08:42;;;;;;;11.18;10.07;;;21.90;99.90;;;;;;5094578;28;20196;-73
2022/06/04 07:11:09;;;;;;;11.50;10.40;;;22.10;99.90;;;;;;5094958;28;20192;-73
2022/06/04 07:13:35;;;;;;;11.00;10.00;;;22.10;99.90;;;;;;5095141;28;20273;-73
2022/06/04 07:16:02;;;;;;;11.30;10.35;;;22.70;99.90;;;;;;5095324;28;20200;-73
2022/06/04 07:18:30;;;;;;;12.20;11.00;;;22.90;99.90;;;;;;5095033;28;20235;-73
2022/06/04 07:20:57;;;;;;;9.95;9.05;;;23.10;99.90;;;;;;5100267;28;20200;-73
2022/06/04 07:23:23;;;;;;;10.80;9.73;;;23.30;99.90;;;;;;5111023;28;20216;-73
2022/06/04 07:25:50;;;;;;;11.13;10.02;;;23.70;99.90;;;;;;5115795;28;20226;-73
2022/06/04 07:28:17;;;;;;;10.27;9.40;;;23.60;99.90;;;;;;5097228;28;20250;-73
2022/06/04 07:30:43;;;;;;;9.70;8.88;;;23.90;99.90;;;;;;5094402;28;20257;-73
2022/06/04 07:33:10;;;;;;;11.65;10.65;;;24.10;99.90;;;;;;5094282;28;20618;-73
2022/06/04 07:35:38;;;;;;;10.93;9.88;;;24.40;99.90;;;;;;5094112;28;20663;-73
2022/06/04 07:38:05;;;;;;;10.63;9.82;;;24.50;99.90;;;;;;5094120;28;20204;-73
2022/06/04 07:40:31;;;;;;;10.48;9.68;;;24.60;99.90;;;;;;5094237;28;20242;-73
2022/06/04 07:42:58;;;;;;;8.93;8.23;;;24.30;99.90;;;;;;5094028;28;20238;-73
2022/06/04 07:45:25;;;;;;;10.90;9.98;;;24.30;99.90;;;;;;5094117;28;20192;-73
2022/06/04 07:47:52;;;;;;;9.93;9.07;;;24.10;99.90;;;;;;5093940;28;20252;-73
2022/06/04 07:50:19;;;;;;;11.95;10.95;;;24.00;99.90;;;;;;5093773;28;20196;-73
2022/06/04 07:52:47;;;;;;;11.75;10.75;;;23.90;99.90;;;;;;5093440;28;20197;-74
2022/06/04 07:55:14;;;;;;;10.90;10.00;;;23.50;99.90;;;;;;5093849;28;20257;-73
2022/06/04 07:57:41;;;;;;;11.45;10.45;;;23.30;99.90;;;;;;5093875;28;20200;-73
2022/06/04 08:00:09;;;;;;;11.10;10.20;;;23.00;99.90;;;;;;5093731;28;20204;-73
2022/06/04 08:02:36;;;;;;;12.43;11.38;;;22.90;99.90;;;;;;5093425;28;20272;-73
2022/06/04 08:05:03;;;;;;;12.90;11.68;;;22.70;99.90;;;;;;5093854;28;20203;-74
2022/06/04 08:07:30;;;;;;;13.40;12.15;;;22.30;99.90;;;;;;5093659;28;20602;-73
2022/06/04 08:09:58;;;;;;;14.48;13.07;;;22.10;99.90;;;;;;5093548;28;20200;-73
2022/06/04 08:12:29;;;;;;;14.18;13.07;;;21.80;99.90;;;;;;5093514;28;20204;-73
2022/06/04 08:14:56;;;;;;;13.50;12.40;;;21.50;99.90;;;;;;5093536;28;20196;-73
2022/06/04 08:17:23;;;;;;;14.10;13.00;;;21.30;99.90;;;;;;5093385;28;20242;-73
2022/06/04 08:19:50;;;;;;;17.17;15.65;;;21.10;99.90;;;;;;5093676;28;20202;-73
2022/06/04 08:22:16;;;;;;;16.60;15.00;;;20.90;99.90;;;;;;5093569;28;20602;-73
2022/06/04 08:24:43;;;;;;;17.00;15.20;;;20.80;99.90;;;;;;5093475;28;20228;-73
2022/06/04 08:27:11;;;;;;;17.80;16.30;;;20.60;99.90;;;;;;5093405;28;20200;-74
2022/06/04 08:29:38;;;;;;;17.98;16.48;;;20.30;99.90;;;;;;5093270;28;20598;-73
2022/06/04 08:32:06;;;;;;;18.85;17.15;;;20.00;99.90;;;;;;5093344;28;20209;-74
2022/06/04 08:34:33;;;;;;;18.70;17.08;;;19.60;99.90;;;;;;5093467;28;20226;-74
2022/06/04 08:37:01;;;;;;;19.70;17.77;;;19.20;99.90;;;;;;5093342;28;20202;-74
2022/06/04 08:39:29;;;;;;;22.23;19.98;;;19.20;99.90;;;;;;5093141;28;20250;-78
2022/06/04 08:42:04;;;;;;;25.08;22.33;;;18.70;99.90;;;;;;5093394;28;20582;-79
2022/06/04 08:44:35;;;;;;;28.90;26.20;;;18.40;99.90;;;;;;5093067;28;20228;-79
2022/06/04 08:47:11;;;;;;;32.00;28.75;;;18.50;99.90;;;;;;5093096;28;20196;-78
2022/06/04 08:49:40;;;;;;;30.83;28.02;;;18.70;99.90;;;;;;5093139;28;20200;-78
2022/06/04 08:52:12;;;;;;;29.52;26.95;;;19.10;99.90;;;;;;5093166;28;20245;-77
2022/06/04 08:57:35;;;;;;;25.30;23.00;;;19.60;99.90;;;;;;5093157;28;20257;-78
2022/06/04 09:00:09;;;;;;;24.35;22.00;;;19.60;99.90;;;;;;5093186;28;20347;-78
2022/06/04 09:02:52;;;;;;;23.50;21.27;;;19.70;99.90;;;;;;5093076;28;20240;-78
2022/06/04 09:05:27;;;;;;;22.63;20.52;;;19.90;99.90;;;;;;5095723;28;20249;-78
2022/06/04 09:08:01;;;;;;;20.95;18.95;;;20.10;99.90;;;;;;5097412;28;20252;-78
2022/06/04 09:10:32;;;;;;;22.33;20.30;;;20.30;99.90;;;;;;5097347;28;20204;-79
2022/06/04 09:13:03;;;;;;;21.60;19.70;;;20.50;99.90;;;;;;5097154;28;20200;-79
2022/06/04 09:15:38;;;;;;;21.00;19.05;;;20.60;99.90;;;;;;5097055;28;20204;-79
2022/06/04 09:18:13;;;;;;;22.35;20.23;;;21.10;99.90;;;;;;5097215;28;20244;-79
2022/06/04 09:20:43;;;;;;;18.88;17.38;;;21.50;99.90;;;;;;5097075;28;20196;-79
2022/06/04 09:23:30;;;;;;;20.33;18.63;;;22.60;99.90;;;;;;5096908;28;20210;-80
2022/06/04 09:26:01;;;;;;;21.52;19.65;;;23.50;99.90;;;;;;5096817;28;20200;-80
2022/06/04 09:28:35;;;;;;;17.48;15.98;;;24.10;99.90;;;;;;5097028;28;20203;-81
2022/06/04 09:31:16;;;;;;;15.05;13.75;;;24.30;99.90;;;;;;5097217;28;20257;-81
2022/06/04 09:33:55;;;;;;;14.23;12.98;;;24.70;99.90;;;;;;5098850;28;20287;-81
2022/06/04 09:36:25;;;;;;;15.88;14.48;;;25.20;99.90;;;;;;5118093;28;20188;-80
2022/06/04 09:38:56;;;;;;;14.63;13.45;;;25.20;99.90;;;;;;5110341;28;20230;-80
2022/06/04 09:41:25;;;;;;;15.20;13.88;;;25.60;99.90;;;;;;5098219;28;20189;-80
2022/06/04 09:44:08;;;;;;;13.60;12.50;;;26.60;99.90;;;;;;5097132;28;20219;-79
2022/06/04 09:46:36;;;;;;;15.38;14.18;;;27.10;99.90;;;;;;5096720;28;20196;-79
2022/06/04 09:49:14;;;;;;;15.05;13.77;;;27.10;99.90;;;;;;5096169;28;20745;-78
2022/06/04 09:51:43;;;;;;;13.93;12.73;;;27.40;99.90;;;;;;5096554;28;20282;-78
2022/06/04 09:54:23;;;;;;;13.63;12.60;;;27.40;99.90;;;;;;5091968;28;20193;-92
2022/06/04 09:56:54;;;;;;;13.25;12.25;;;27.20;99.90;;;;;;5057991;28;20193;-77
2022/06/04 09:59:24;;;;;;;14.35;13.25;;;26.50;99.90;;;;;;5075510;28;20205;-76
2022/06/04 10:02:17;;;;;;;13.93;12.80;;;26.20;99.90;;;;;;5075548;28;20197;-76
2022/06/04 10:04:47;;;;;;;14.25;13.18;;;26.60;99.90;;;;;;5075667;28;20402;-76
2022/06/04 10:07:16;;;;;;;15.63;14.32;;;26.20;99.90;;;;;;5075444;28;20637;-76
2022/06/04 10:09:58;;;;;;;15.63;14.32;;;26.00;99.90;;;;;;5075523;28;20246;-76
2022/06/04 10:15:16;;;;;;;12.93;11.93;;;27.70;99.90;;;;;;5074570;28;20193;-76
2022/06/04 10:17:45;;;;;;;13.35;12.35;;;28.50;99.90;;;;;;5075205;28;20197;-76
2022/06/04 10:20:23;;;;;;;12.07;11.18;;;27.60;99.90;;;;;;5076104;28;20197;-76
2022/06/04 10:22:51;;;;;;;12.38;11.43;;;28.80;99.90;;;;;;5076229;28;20197;-75
2022/06/04 10:25:21;;;;;;;14.20;13.02;;;28.80;99.90;;;;;;5095509;28;20220;-76
2022/06/04 10:27:59;;;;;;;14.48;13.38;;;28.40;99.90;;;;;;5089656;28;20220;-74
2022/06/04 10:30:30;;;;;;;13.93;12.73;;;27.10;99.90;;;;;;5094686;28;20208;-74
2022/06/04 10:33:12;;;;;;;14.18;12.85;;;26.60;99.90;;;;;;5097213;28;20189;-74
2022/06/04 10:36:14;;;;;;;15.15;13.85;;;26.50;99.90;;;;;;5096345;28;20209;-73
2022/06/04 10:38:55;;;;;;;15.23;14.02;;;26.00;99.90;;;;;;5078011;28;20318;-75
2022/06/04 10:41:35;;;;;;;16.02;14.73;;;25.80;99.90;;;;;;5079383;28;20255;-74
2022/06/04 10:44:21;;;;;;;15.60;14.30;;;25.70;99.90;;;;;;5075013;28;20323;-74
2022/06/04 10:47:00;;;;;;;14.23;13.05;;;25.80;99.90;;;;;;5074811;28;20196;-75
2022/06/04 10:49:47;;;;;;;15.20;13.95;;;26.70;99.90;;;;;;5074856;28;20197;-75
2022/06/04 10:52:25;;;;;;;13.80;12.70;;;26.40;99.90;;;;;;5074811;28;20603;-74
2022/06/04 10:55:00;;;;;;;13.10;12.10;;;27.20;99.90;;;;;;5074670;28;20530;-75
2022/06/04 10:57:30;;;;;;;12.45;11.45;;;28.00;99.90;;;;;;5074802;28;20223;-75
2022/06/04 11:00:03;;;;;;;13.55;12.52;;;28.40;99.90;;;;;;5074867;28;20661;-73
2022/06/04 11:02:37;;;;;;;12.07;11.18;;;28.40;99.90;;;;;;5075067;28;20259;-73
2022/06/04 11:05:12;;;;;;;12.15;11.18;;;28.30;99.90;;;;;;5074671;28;20224;-73
2022/06/04 11:07:52;;;;;;;11.15;10.18;;;28.30;99.90;;;;;;5057713;28;20212;-73
2022/06/04 11:10:26;;;;;;;11.02;10.13;;;27.60;99.90;;;;;;5074326;28;20254;-73
2022/06/04 11:12:59;;;;;;;10.65;9.73;;;27.80;99.90;;;;;;5074232;28;20717;-73
2022/06/04 11:15:30;;;;;;;9.57;8.77;;;27.10;99.90;;;;;;5074276;28;20208;-73
2022/06/04 11:18:01;;;;;;;9.93;9.13;;;26.80;99.90;;;;;;5074377;28;20560;-73
2022/06/04 11:20:31;;;;;;;11.57;10.68;;;26.40;99.90;;;;;;5074645;28;20201;-72
2022/06/04 11:23:29;;;;;;;11.05;10.13;;;26.10;99.90;;;;;;5074444;28;20556;-73
2022/06/04 11:25:59;;;;;;;10.95;10.05;;;26.30;99.90;;;;;;5074290;28;20679;-73
2022/06/04 11:28:27;;;;;;;10.43;9.63;;;26.00;99.90;;;;;;5072953;28;20716;-73
2022/06/04 11:31:02;;;;;;;9.32;8.52;;;26.40;99.90;;;;;;5074131;28;20193;-73
2022/06/04 11:33:47;;;;;;;10.32;9.32;;;26.60;99.90;;;;;;5074126;28;20192;-73
2022/06/04 11:36:24;;;;;;;10.65;9.75;;;26.90;99.90;;;;;;5074078;28;20215;-73
2022/06/04 11:39:02;;;;;;;8.82;8.13;;;27.70;99.90;;;;;;5073761;28;20567;-73
2022/06/04 11:41:35;;;;;;;8.85;8.15;;;27.50;99.90;;;;;;5073847;28;20197;-73
2022/06/04 11:44:15;;;;;;;9.43;8.73;;;27.00;99.90;;;;;;5073617;28;20278;-73
2022/06/04 11:46:57;;;;;;;9.68;8.88;;;26.80;99.90;;;;;;5073934;28;20201;-73
2022/06/04 11:49:33;;;;;;;10.35;9.55;;;27.10;99.90;;;;;;5053908;28;20198;-73
2022/06/04 11:52:18;;;;;;;10.65;9.80;;;26.90;99.90;;;;;;5053747;28;20201;-73
2022/06/04 11:55:02;;;;;;;11.43;10.52;;;26.00;99.90;;;;;;5053616;28;20281;-73
2022/06/04 11:57:34;;;;;;;13.70;12.50;;;25.80;99.90;;;;;;5053570;28;20534;-73
2022/06/04 12:00:12;;;;;;;11.95;10.85;;;25.30;99.90;;;;;;5053415;28;20205;-73
2022/06/04 12:02:46;;;;;;;13.27;12.23;;;25.30;99.90;;;;;;5053571;28;20201;-73
2022/06/04 12:05:24;;;;;;;13.02;12.02;;;25.10;99.90;;;;;;5053335;28;20271;-73
2022/06/04 12:07:54;;;;;;;11.65;10.65;;;25.50;99.90;;;;;;5053366;28;20235;-73
2022/06/04 12:10:29;;;;;;;14.20;13.10;;;25.10;99.90;;;;;;5053190;28;20255;-72
2022/06/04 12:13:02;;;;;;;13.57;12.35;;;25.00;99.90;;;;;;5053327;28;20189;-72
2022/06/04 12:15:39;;;;;;;14.18;12.98;;;24.70;99.90;;;;;;5053088;28;20194;-73
2022/06/04 12:18:21;;;;;;;14.65;13.45;;;24.90;99.90;;;;;;5053212;28;20202;-73
2022/06/04 12:26:31;;;;;;;14.07;12.93;;;24.60;99.90;;;;;;5052926;28;20283;-73
2022/06/04 12:28:58;;;;;;;13.98;12.85;;;24.10;99.90;;;;;;5052748;28;20198;-73
2022/06/04 12:31:34;;;;;;;14.32;12.93;;;24.00;99.90;;;;;;5052778;28;20595;-73
2022/06/04 12:34:02;;;;;;;12.80;11.75;;;24.10;99.90;;;;;;5053027;28;20608;-73
2022/06/04 12:36:32;;;;;;;13.27;12.18;;;24.20;99.90;;;;;;5052746;28;20292;-73
2022/06/04 12:39:05;;;;;;;12.88;11.73;;;24.10;99.90;;;;;;5052609;28;20209;-73
2022/06/04 12:41:43;;;;;;;12.57;11.48;;;24.30;99.90;;;;;;5052745;28;20782;-75
2022/06/04 12:44:24;;;;;;;12.13;11.13;;;24.20;99.90;;;;;;5052520;28;20676;-73
2022/06/04 12:46:53;;;;;;;12.35;11.32;;;24.20;99.90;;;;;;5053043;28;20206;-75
2022/06/04 12:49:43;;;;;;;12.63;11.52;;;24.50;99.90;;;;;;5072950;28;20197;-74
2022/06/04 12:52:36;;;;;;;12.80;11.80;;;24.60;99.90;;;;;;5074164;28;20591;-73
2022/06/04 12:55:15;;;;;;;12.90;11.82;;;24.70;99.90;;;;;;5073855;28;20219;-74
2022/06/04 12:57:46;;;;;;;12.40;11.40;;;25.20;99.90;;;;;;5072815;28;20631;-75
2022/06/04 13:00:29;;;;;;;11.75;10.85;;;25.70;99.90;;;;;;5072894;28;20197;-75
2022/06/04 13:03:13;;;;;;;12.40;11.30;;;26.00;99.90;;;;;;5072803;28;20185;-75
2022/06/04 13:06:11;;;;;;;13.32;12.23;;;26.10;99.90;;;;;;5072433;28;20228;-75
2022/06/04 13:08:46;;;;;;;11.63;10.73;;;25.70;99.90;;;;;;5059487;28;20227;-75
2022/06/04 13:11:27;;;;;;;11.27;10.30;;;25.70;99.90;;;;;;5072299;28;20651;-72